Tuesday, April 24, 2018, 9:05 PM EDT
Back to Local

KAQW, N Adams Harriman-and-west

Location: North Adams, MA, United States Lat: 42.7
Local Time: 9:05 PM EDT ( 1:05 GMT) Lon: -73.167
Time Zone: US/Eastern Elev: 652 ft

Show me the last for .
Show Coded

Time T Td Feel RH Dir Speed Gust Alt SLP Vis Weather Sky Remarks
2018-04-24 20:52 58 33 - 38 - - - 30.20 30.21 10 CLR None
2018-04-24 19:52 61 30 - 30 220° 7 - 30.18 30.18 10 CLR 6-hr Min Temp (8pm): 61.0°F
6-hr Max Temp (8pm): 69.1°F
2018-04-24 18:52 63 27 - 25 210° 6 - 30.18 30.19 10 CLR None
2018-04-24 17:52 66 26 - 21 240° 12 17 30.18 30.19 10 CLR None
2018-04-24 16:52 67 22 - 17 230° 8 - 30.19 30.20 10 CLR None
2018-04-24 15:52 67 23 - 18 240° 13 20 30.21 30.21 10 CLR None
2018-04-24 14:52 68 24 - 18 250° 13 17 30.23 30.23 10 CLR None
2018-04-24 13:52 67 22 - 17 230° 14 - 30.25 30.26 10 CLR 6-hr Min Temp (2pm): 45.0°F
6-hr Max Temp (2pm): 66.9°F
2018-04-24 12:52 66 24 - 20 Variable 6 - 30.28 30.28 10 CLR None
2018-04-24 11:52 63 24 - 22 230° 7 - 30.31 30.32 10 CLR None
2018-04-24 10:52 61 23 - 23 220° 10 - 30.35 30.35 10 CLR None
2018-04-24 09:52 58 26 - 29 140° 3 - 30.36 30.37 10 CLR None
2018-04-24 08:52 51 28 - 40 100° 9 - 30.38 30.38 10 CLR None
2018-04-24 07:52 45 26 - 47 - Calm - 30.39 30.40 10 CLR 6-hr Min Temp (8am): 34.0°F
6-hr Max Temp (8am): 45.0°F
2018-04-24 06:52 38 26 33 61 110° 6 - 30.38 30.39 10 CLR None
2018-04-24 05:52 36 25 - 63 - Calm - 30.37 30.37 10 CLR None
2018-04-24 04:52 39 24 33 54 100° 9 - 30.37 30.37 10 CLR None
2018-04-24 03:52 41 24 34 50 110° 12 - 30.37 30.37 10 CLR None
2018-04-24 02:52 44 23 41 42 110° 6 - 30.36 30.37 10 CLR None
2018-04-24 01:52 42 25 37 50 100° 8 - 30.38 30.38 10 CLR 6-hr Min Temp (2am): 41.0°F
6-hr Max Temp (2am): 55.9°F
2018-04-24 00:52 42 26 38 52 110° 6 - 30.38 30.39 10 CLR 24-hr Min Temp (1am): 24.1°F
24-hr Max Temp (1am): 68.0°F
2018-04-23 23:52 45 26 43 47 120° 5 - 30.38 30.39 10 CLR None
2018-04-23 22:52 46 27 45 47 110° 3 - 30.38 30.38 10 CLR None
2018-04-23 21:52 50 26 47 39 100° 8 - 30.36 30.37 10 CLR None

Support USWX by starting your Amazon purchase here.